createdAt,value
2022-09-23T00:01:07.744Z,8.45
2022-09-23T00:04:10.811Z,8.00
2022-09-23T00:07:13.187Z,7.50
2022-09-23T00:10:15.612Z,7.22
2022-09-23T00:13:17.999Z,7.00
2022-09-23T00:16:26.627Z,7.15
2022-09-23T00:19:29.790Z,7.72
2022-09-23T00:22:32.118Z,6.73
2022-09-23T00:25:34.502Z,7.68
2022-09-23T00:28:37.263Z,7.50
2022-09-23T00:31:39.580Z,6.78
2022-09-23T00:34:44.480Z,7.30
2022-09-23T00:37:46.844Z,7.57
2022-09-23T00:40:49.845Z,7.07
2022-09-23T00:43:55.431Z,6.78
2022-09-23T00:46:57.916Z,6.32
2022-09-23T00:50:20.320Z,6.53
2022-09-23T00:53:26.717Z,6.40
2022-09-23T00:56:32.009Z,6.00
2022-09-23T00:59:34.454Z,6.43
2022-09-23T01:02:37.720Z,6.55
2022-09-23T01:05:41.475Z,6.65
2022-09-23T01:08:46.610Z,6.10
2022-09-23T01:12:19.302Z,6.50
2022-09-23T01:15:48.430Z,7.05
2022-09-23T01:19:14.911Z,7.00
2022-09-23T01:22:30.475Z,8.30
2022-09-23T01:26:08.320Z,7.87
2022-09-23T01:29:48.225Z,7.03
2022-09-23T01:32:56.230Z,7.43
2022-09-23T01:36:04.290Z,6.85
2022-09-23T01:39:22.250Z,6.75
2022-09-23T01:42:31.224Z,6.57
2022-09-23T01:45:43.426Z,6.63
2022-09-23T01:49:19.270Z,7.32
2022-09-23T01:52:36.775Z,7.10
2022-09-23T01:55:44.362Z,7.32
2022-09-23T01:58:56.772Z,6.67
2022-09-23T02:02:25.258Z,7.55
2022-09-23T02:05:34.194Z,7.93
2022-09-23T02:08:53.056Z,7.60
2022-09-23T02:12:04.976Z,8.07
2022-09-23T02:15:13.806Z,8.20
2022-09-23T02:18:22.437Z,6.95
2022-09-23T02:21:33.846Z,5.97
2022-09-23T02:24:39.212Z,6.70
2022-09-23T02:28:02.159Z,5.95
2022-09-23T02:31:24.943Z,5.80
2022-09-23T02:35:05.695Z,6.13
2022-09-23T02:38:18.758Z,5.75
2022-09-23T02:41:33.783Z,6.22
2022-09-23T02:44:36.702Z,5.80
2022-09-23T02:47:42.146Z,6.63
2022-09-23T02:50:45.735Z,6.25
2022-09-23T02:53:48.040Z,6.28
2022-09-23T02:56:50.481Z,6.45
2022-09-23T02:59:52.876Z,5.53
2022-09-23T03:03:20.540Z,6.07
2022-09-23T03:06:36.245Z,6.10
2022-09-23T03:09:38.666Z,6.30
2022-09-23T03:12:41.134Z,6.97
2022-09-23T03:16:11.569Z,6.38
2022-09-23T03:19:41.447Z,5.90
2022-09-23T03:22:51.843Z,6.45
2022-09-23T03:25:56.155Z,6.40
2022-09-23T03:29:02.035Z,7.13
2022-09-23T03:32:08.245Z,6.22
2022-09-23T03:35:12.444Z,6.60
2022-09-23T03:38:17.332Z,6.03
2022-09-23T03:41:31.659Z,6.15
2022-09-23T03:44:39.328Z,6.47
2022-09-23T03:47:42.301Z,5.70
2022-09-23T03:50:44.682Z,6.23
2022-09-23T03:53:47.308Z,7.82
2022-09-23T03:56:49.757Z,8.15
2022-09-23T03:59:52.554Z,7.15
2022-09-23T04:02:54.898Z,6.55
2022-09-23T04:05:57.254Z,7.77
2022-09-23T04:09:01.178Z,6.38
2022-09-23T04:12:04.138Z,6.82
2022-09-23T04:15:07.155Z,5.60
2022-09-23T04:18:09.738Z,5.28
2022-09-23T04:21:12.111Z,6.00
2022-09-23T04:24:14.899Z,6.15
2022-09-23T04:27:17.235Z,5.43
2022-09-23T04:30:19.636Z,5.93
2022-09-23T04:33:21.991Z,6.38
2022-09-23T04:36:24.847Z,5.73
2022-09-23T04:39:27.554Z,6.70
2022-09-23T04:42:30.769Z,7.55
2022-09-23T04:45:33.212Z,6.93
2022-09-23T04:48:37.038Z,7.50
2022-09-23T04:51:43.316Z,7.43
2022-09-23T04:54:45.713Z,7.85
2022-09-23T04:57:48.077Z,9.20
2022-09-23T05:00:50.516Z,8.05
2022-09-23T05:03:55.225Z,8.15
2022-09-23T05:07:02.821Z,9.47
2022-09-23T05:10:07.028Z,10.45
2022-09-23T05:13:09.409Z,11.05
2022-09-23T05:16:14.631Z,10.98
2022-09-23T05:19:17.342Z,11.73
2022-09-23T05:22:19.675Z,10.30
2022-09-23T05:25:23.909Z,9.00
2022-09-23T05:28:29.937Z,8.43
2022-09-23T05:31:32.353Z,8.75
2022-09-23T05:34:34.814Z,8.43
2022-09-23T05:37:38.957Z,9.37
2022-09-23T05:40:41.489Z,11.75
2022-09-23T05:43:44.033Z,10.63
2022-09-23T05:46:46.503Z,14.82
2022-09-23T05:49:59.556Z,18.80
2022-09-23T05:53:02.697Z,15.27
2022-09-23T05:56:06.182Z,14.95
2022-09-23T05:59:08.666Z,14.85
2022-09-23T06:02:11.088Z,11.93
2022-09-23T06:05:13.776Z,11.10
2022-09-23T06:08:16.107Z,8.80
2022-09-23T06:11:18.685Z,7.85
2022-09-23T06:14:20.996Z,9.35
2022-09-23T06:17:23.380Z,15.80
2022-09-23T06:20:26.166Z,16.25
2022-09-23T06:23:28.811Z,10.83
2022-09-23T06:26:33.847Z,9.52
2022-09-23T06:29:36.216Z,8.48
2022-09-23T06:32:38.550Z,7.68
2022-09-23T06:35:43.161Z,8.40
2022-09-23T06:38:49.329Z,9.20
2022-09-23T06:41:51.630Z,9.10
2022-09-23T06:44:54.063Z,9.65
2022-09-23T06:47:57.976Z,7.32
2022-09-23T06:51:04.023Z,7.88
2022-09-23T06:54:06.637Z,8.10
2022-09-23T06:57:10.213Z,8.90
2022-09-23T07:00:13.294Z,9.05
2022-09-23T07:03:15.776Z,8.82
2022-09-23T07:06:18.189Z,8.60
2022-09-23T07:09:20.922Z,7.90
2022-09-23T07:12:23.225Z,7.50
2022-09-23T07:15:25.503Z,6.80
2022-09-23T07:18:36.833Z,7.65
2022-09-23T07:21:39.547Z,8.05
2022-09-23T07:24:41.895Z,7.10
2022-09-23T07:27:44.246Z,6.40
2022-09-23T07:30:57.931Z,6.20
2022-09-23T07:34:02.660Z,6.18
2022-09-23T07:37:05.601Z,6.50
2022-09-23T07:40:09.500Z,6.33
2022-09-23T07:43:11.874Z,6.57
2022-09-23T07:46:16.860Z,6.18
2022-09-23T07:49:19.446Z,6.65
2022-09-23T07:52:21.870Z,6.53
2022-09-23T07:55:24.216Z,6.10
2022-09-23T07:58:26.725Z,6.18
2022-09-23T08:01:50.568Z,6.20
2022-09-23T08:04:54.923Z,6.65
2022-09-23T08:07:57.741Z,6.07
2022-09-23T08:11:04.180Z,5.73
2022-09-23T08:14:07.881Z,5.75
2022-09-23T08:17:12.836Z,6.57
2022-09-23T08:20:35.203Z,6.05
2022-09-23T08:23:37.553Z,5.97
2022-09-23T08:26:40.052Z,6.07
2022-09-23T08:29:42.341Z,6.35
2022-09-23T08:32:44.611Z,6.30
2022-09-23T08:35:47.058Z,4.97
2022-09-23T08:38:49.477Z,5.95
2022-09-23T08:42:16.409Z,5.47
2022-09-23T08:45:25.005Z,4.93
2022-09-23T08:48:48.270Z,5.32
2022-09-23T08:51:54.842Z,4.72
2022-09-23T08:54:57.407Z,4.70
2022-09-23T08:58:25.925Z,4.70
2022-09-23T09:01:41.872Z,4.78
2022-09-23T09:04:47.661Z,4.35
2022-09-23T09:07:50.025Z,4.25
2022-09-23T09:10:55.204Z,4.10
2022-09-23T09:14:05.959Z,4.37
2022-09-23T09:17:24.712Z,4.70
2022-09-23T09:20:39.501Z,4.50
2022-09-23T09:24:00.193Z,4.70
2022-09-23T09:27:11.966Z,5.03
2022-09-23T09:30:14.861Z,5.87
2022-09-23T09:33:21.008Z,5.20
2022-09-23T09:36:38.274Z,5.85
2022-09-23T09:39:40.853Z,5.95
2022-09-23T09:42:47.817Z,5.95
2022-09-23T09:46:29.372Z,5.27
2022-09-23T09:49:45.549Z,5.07
2022-09-23T09:52:48.920Z,5.05
2022-09-23T09:56:34.431Z,5.15
2022-09-23T09:59:43.106Z,4.57
2022-09-23T10:02:46.577Z,4.20
2022-09-23T10:05:52.225Z,4.85
2022-09-23T10:09:17.379Z,4.55
2022-09-23T10:12:22.320Z,3.63
2022-09-23T10:15:31.397Z,4.88
2022-09-23T10:18:50.284Z,4.50
2022-09-23T10:21:59.826Z,4.40
2022-09-23T10:25:15.597Z,4.38
2022-09-23T10:28:41.808Z,4.28
2022-09-23T10:31:45.337Z,4.18
2022-09-23T10:35:13.382Z,4.77
2022-09-23T10:38:15.779Z,4.13
2022-09-23T10:41:58.476Z,4.70
2022-09-23T10:45:28.396Z,4.20
2022-09-23T10:48:40.758Z,4.20
2022-09-23T10:52:15.017Z,3.73
2022-09-23T10:55:40.621Z,4.13
2022-09-23T10:58:55.960Z,3.85
2022-09-23T11:02:25.382Z,3.80
2022-09-23T11:05:55.376Z,3.83
2022-09-23T11:09:23.620Z,3.90
2022-09-23T11:13:07.768Z,3.22
2022-09-23T11:16:39.079Z,3.50
2022-09-23T11:20:00.467Z,3.67
2022-09-23T11:23:32.315Z,4.55
2022-09-23T11:27:05.161Z,4.80
2022-09-23T11:30:19.910Z,4.30
2022-09-23T11:33:43.363Z,4.78
2022-09-23T11:37:07.235Z,4.43
2022-09-23T11:40:46.459Z,4.18
2022-09-23T11:43:58.844Z,3.37
2022-09-23T11:47:08.912Z,3.42
2022-09-23T11:50:44.732Z,3.95
2022-09-23T11:53:51.914Z,4.03
2022-09-23T11:56:58.779Z,3.72
2022-09-23T12:00:04.692Z,4.13
2022-09-23T12:03:44.965Z,4.00
2022-09-23T12:06:54.641Z,4.20
2022-09-23T12:10:09.918Z,4.78
2022-09-23T12:13:44.557Z,4.18
2022-09-23T12:17:13.048Z,4.50
2022-09-23T12:20:33.303Z,4.05
2022-09-23T12:24:12.016Z,3.60
2022-09-23T12:27:24.731Z,3.67
2022-09-23T12:30:32.081Z,3.78
2022-09-23T12:33:36.831Z,3.57
2022-09-23T12:36:39.422Z,4.10
2022-09-23T12:39:46.748Z,3.63
2022-09-23T12:47:54.378Z,3.72
2022-09-23T12:50:56.656Z,3.63
2022-09-23T12:54:14.186Z,3.72
2022-09-23T12:57:34.907Z,3.38
2022-09-23T13:00:37.363Z,3.38
2022-09-23T13:04:04.725Z,3.42
2022-09-23T13:07:08.973Z,3.17
2022-09-23T13:10:44.666Z,3.55
2022-09-23T13:13:49.986Z,2.95
2022-09-23T13:16:52.537Z,2.58
2022-09-23T13:20:05.323Z,2.88
2022-09-23T13:23:27.038Z,3.60
2022-09-23T13:26:32.314Z,3.65
2022-09-23T13:29:58.714Z,3.88
2022-09-23T13:33:30.934Z,3.15
2022-09-23T13:36:44.373Z,2.70
2022-09-23T13:39:47.137Z,3.03
2022-09-23T13:43:14.715Z,2.90
2022-09-23T13:46:23.389Z,2.65
2022-09-23T13:49:29.665Z,2.50
2022-09-23T13:52:33.359Z,2.88
2022-09-23T13:55:38.801Z,2.23
2022-09-23T13:58:41.716Z,2.00
2022-09-23T14:01:44.119Z,2.40
2022-09-23T14:04:46.842Z,2.03
2022-09-23T14:07:54.615Z,2.10
2022-09-23T14:11:00.880Z,2.50
2022-09-23T14:14:07.418Z,2.17
2022-09-23T14:17:18.393Z,2.30
2022-09-23T14:20:22.362Z,1.90
2022-09-23T14:23:24.780Z,2.10
2022-09-23T14:26:27.242Z,2.70
2022-09-23T14:29:33.840Z,2.30
2022-09-23T14:32:36.452Z,1.95
2022-09-23T14:35:43.268Z,2.55
2022-09-23T14:38:51.630Z,2.10
2022-09-23T14:41:53.968Z,1.93
2022-09-23T14:44:56.375Z,1.85
2022-09-23T14:48:02.138Z,2.10
2022-09-23T14:51:07.381Z,2.40
2022-09-23T14:54:33.588Z,2.42
2022-09-23T14:57:38.575Z,1.83
2022-09-23T15:00:59.447Z,2.30
2022-09-23T15:04:12.925Z,1.98
2022-09-23T15:07:18.622Z,2.20
2022-09-23T15:10:23.578Z,2.25
2022-09-23T15:13:29.695Z,2.30
2022-09-23T15:16:32.878Z,2.78
2022-09-23T15:19:37.349Z,2.42
2022-09-23T15:22:46.573Z,1.90
2022-09-23T15:25:51.637Z,2.20
2022-09-23T15:28:58.340Z,2.20
2022-09-23T15:32:01.099Z,2.50
2022-09-23T15:35:03.667Z,2.50
2022-09-23T15:38:06.061Z,1.90
2022-09-23T15:41:08.420Z,2.10
2022-09-23T15:44:17.109Z,2.00
2022-09-23T15:47:21.707Z,2.00
2022-09-23T15:50:24.113Z,2.20
2022-09-23T15:53:27.959Z,3.00
2022-09-23T15:56:30.298Z,3.35
2022-09-23T15:59:33.001Z,37.00
2022-09-23T16:02:36.222Z,60.30
2022-09-23T16:05:43.129Z,44.05
2022-09-23T16:08:45.618Z,10.63
2022-09-23T16:11:49.643Z,8.68
2022-09-23T16:14:52.169Z,7.87
2022-09-23T16:17:55.327Z,5.45
2022-09-23T16:20:59.062Z,5.00
2022-09-23T16:24:01.617Z,4.72
2022-09-23T16:27:07.768Z,6.68
2022-09-23T16:30:11.025Z,8.77
2022-09-23T16:33:13.342Z,8.60
2022-09-23T16:36:25.888Z,8.75
2022-09-23T16:39:28.466Z,7.15
2022-09-23T16:42:30.801Z,6.38
2022-09-23T16:45:33.338Z,5.43
2022-09-23T16:48:40.406Z,4.82
2022-09-23T16:51:42.814Z,5.22
2022-09-23T16:54:48.007Z,4.75
2022-09-23T16:57:50.648Z,6.68
2022-09-23T17:01:17.483Z,6.50
2022-09-23T17:04:19.980Z,6.97
2022-09-23T17:07:22.523Z,6.32
2022-09-23T17:10:24.993Z,8.45
2022-09-23T17:13:28.405Z,7.85
2022-09-23T17:16:33.130Z,9.30
2022-09-23T17:19:37.920Z,9.23
2022-09-23T17:22:41.461Z,8.90
2022-09-23T17:25:48.003Z,9.02
2022-09-23T17:28:51.768Z,8.90
2022-09-23T17:31:54.351Z,10.10
2022-09-23T17:34:57.423Z,13.63
2022-09-23T17:37:59.898Z,14.77
2022-09-23T17:41:02.730Z,15.57
2022-09-23T17:44:05.174Z,17.52
2022-09-23T17:47:07.474Z,17.40
2022-09-23T17:50:09.827Z,18.52
2022-09-23T17:53:12.204Z,17.77
2022-09-23T17:56:18.484Z,19.20
2022-09-23T17:59:20.842Z,20.08
2022-09-23T18:02:23.248Z,22.03
2022-09-23T18:05:26.537Z,20.40
2022-09-23T18:08:30.581Z,23.15
2022-09-23T18:11:36.621Z,21.95
2022-09-23T18:14:38.947Z,21.40
2022-09-23T18:17:41.287Z,21.77
2022-09-23T18:20:43.735Z,20.38
2022-09-23T18:23:46.672Z,18.52
2022-09-23T18:26:49.806Z,20.17
2022-09-23T18:29:52.136Z,30.73
2022-09-23T18:32:54.472Z,25.87
2022-09-23T18:35:59.561Z,24.42
2022-09-23T18:39:01.946Z,26.58
2022-09-23T18:42:04.671Z,23.85
2022-09-23T18:45:08.220Z,22.55
2022-09-23T18:48:39.866Z,21.93
2022-09-23T18:51:56.297Z,21.58
2022-09-23T18:54:59.998Z,22.23
2022-09-23T18:58:02.614Z,21.45
2022-09-23T19:01:09.841Z,19.73
2022-09-23T19:04:13.854Z,17.20
2022-09-23T19:07:16.153Z,15.07
2022-09-23T19:10:19.195Z,14.77
2022-09-23T19:13:21.545Z,14.75
2022-09-23T19:16:25.063Z,14.98
2022-09-23T19:19:28.822Z,14.63
2022-09-23T19:22:32.788Z,14.90
2022-09-23T19:25:36.441Z,16.25
2022-09-23T19:28:39.341Z,16.13
2022-09-23T19:31:42.031Z,14.02
2022-09-23T19:34:45.832Z,15.60
2022-09-23T19:37:49.281Z,17.98
2022-09-23T19:40:52.200Z,25.00
2022-09-23T19:43:55.353Z,24.75
2022-09-23T19:46:57.803Z,22.95
2022-09-23T19:50:00.243Z,19.17
2022-09-23T19:53:04.798Z,18.83
2022-09-23T19:56:07.093Z,16.40
2022-09-23T19:59:09.546Z,13.85
2022-09-23T20:02:12.573Z,14.07
2022-09-23T20:05:19.712Z,12.70
2022-09-23T20:08:24.050Z,11.05
2022-09-23T20:11:28.576Z,10.20
2022-09-23T20:14:31.514Z,11.23
2022-09-23T20:17:33.868Z,11.15
2022-09-23T20:20:37.564Z,10.93
2022-09-23T20:23:40.214Z,12.93
2022-09-23T20:27:00.953Z,13.25
2022-09-23T20:30:03.643Z,13.38
2022-09-23T20:33:06.054Z,14.50
2022-09-23T20:36:09.642Z,14.17
2022-09-23T20:39:12.422Z,11.75
2022-09-23T20:42:16.326Z,13.07
2022-09-23T20:45:18.733Z,11.65
2022-09-23T20:48:22.152Z,11.60
2022-09-23T20:51:25.442Z,12.20
2022-09-23T20:54:28.138Z,11.10
2022-09-23T20:57:31.440Z,11.05
2022-09-23T21:00:33.944Z,10.93
2022-09-23T21:03:38.534Z,12.40
2022-09-23T21:06:40.940Z,12.00
2022-09-23T21:09:45.914Z,11.98
2022-09-23T21:12:50.102Z,12.40
2022-09-23T21:15:52.585Z,14.23
2022-09-23T21:18:54.999Z,17.83
2022-09-23T21:21:57.378Z,17.33
2022-09-23T21:28:22.777Z,17.20
2022-09-23T21:31:26.981Z,17.05
2022-09-23T21:34:30.007Z,17.73
2022-09-23T21:37:32.369Z,20.07
2022-09-23T21:40:53.538Z,19.73
2022-09-23T21:43:57.289Z,20.35
2022-09-23T21:46:59.745Z,15.52
2022-09-23T21:50:02.871Z,15.65
2022-09-23T21:53:06.673Z,15.40
2022-09-23T21:56:18.066Z,14.93
2022-09-23T21:59:23.711Z,15.13
2022-09-23T22:02:26.144Z,14.80
2022-09-23T22:05:28.459Z,14.30
2022-09-23T22:08:34.773Z,14.73
2022-09-23T22:11:57.231Z,14.38
2022-09-23T22:14:59.544Z,15.13
2022-09-23T22:18:02.441Z,14.32
2022-09-23T22:21:04.833Z,15.60
2022-09-23T22:24:09.038Z,13.83
2022-09-23T22:27:13.325Z,14.13
2022-09-23T22:30:33.915Z,14.40
2022-09-23T22:33:36.318Z,15.20
2022-09-23T22:36:38.640Z,14.25
2022-09-23T22:39:40.974Z,14.00
2022-09-23T22:42:43.829Z,14.10
2022-09-23T22:45:53.096Z,14.68
2022-09-23T22:48:55.641Z,14.27
2022-09-23T22:51:59.391Z,14.98
2022-09-23T22:55:03.570Z,14.60
2022-09-23T22:58:27.574Z,16.02
2022-09-23T23:01:32.324Z,14.88
2022-09-23T23:04:37.166Z,14.52
2022-09-23T23:07:39.500Z,13.95
2022-09-23T23:10:41.799Z,13.87
2022-09-23T23:13:44.189Z,11.82
2022-09-23T23:16:47.226Z,12.43
2022-09-23T23:19:50.835Z,12.05
2022-09-23T23:22:53.123Z,13.40
2022-09-23T23:25:55.524Z,13.43
2022-09-23T23:28:58.620Z,13.18
2022-09-23T23:32:01.082Z,13.43
2022-09-23T23:35:03.686Z,13.65
2022-09-23T23:38:06.371Z,13.45
2022-09-23T23:41:12.800Z,13.23
2022-09-23T23:44:15.135Z,13.77
2022-09-23T23:47:17.454Z,13.10
2022-09-23T23:50:19.999Z,14.07
2022-09-23T23:53:23.366Z,14.20
2022-09-23T23:56:26.874Z,13.63
2022-09-23T23:59:29.206Z,14.43
